createdAt,value
2023-01-05T00:01:22.281Z,13.70
2023-01-05T00:03:23.936Z,13.80
2023-01-05T00:05:25.566Z,13.80
2023-01-05T00:07:27.196Z,13.80
2023-01-05T00:09:29.204Z,13.80
2023-01-05T00:11:49.557Z,13.80
2023-01-05T00:14:11.796Z,13.80
2023-01-05T00:16:33.051Z,13.80
2023-01-05T00:18:53.447Z,13.80
2023-01-05T00:21:13.689Z,13.80
2023-01-05T00:23:15.443Z,13.70
2023-01-05T00:25:18.706Z,13.70
2023-01-05T00:27:20.356Z,13.70
2023-01-05T00:29:22.032Z,13.80
2023-01-05T00:31:23.679Z,13.70
2023-01-05T00:33:25.439Z,13.90
2023-01-05T00:35:28.868Z,13.70
2023-01-05T00:37:31.406Z,13.70
2023-01-05T00:39:33.079Z,13.80
2023-01-05T00:41:34.764Z,13.80
2023-01-05T00:43:36.677Z,13.80
2023-01-05T00:45:38.412Z,13.80
2023-01-05T00:47:40.285Z,13.80
2023-01-05T00:49:41.971Z,13.80
2023-01-05T00:51:43.613Z,13.80
2023-01-05T00:53:45.412Z,13.80
2023-01-05T00:55:55.335Z,13.80
2023-01-05T00:57:57.006Z,13.80
2023-01-05T00:59:58.651Z,13.80
2023-01-05T01:02:00.551Z,13.80
2023-01-05T01:04:02.304Z,13.80
2023-01-05T01:06:04.296Z,13.80
2023-01-05T01:08:06.019Z,13.80
2023-01-05T01:10:08.573Z,13.80
2023-01-05T01:12:10.203Z,13.80
2023-01-05T01:14:12.031Z,13.80
2023-01-05T01:16:14.695Z,13.80
2023-01-05T01:18:16.441Z,13.80
2023-01-05T01:20:18.921Z,13.80
2023-01-05T01:22:20.516Z,13.80
2023-01-05T01:24:23.785Z,13.90
2023-01-05T01:26:25.422Z,13.80
2023-01-05T01:28:27.045Z,13.80
2023-01-05T01:30:28.756Z,13.80
2023-01-05T01:32:30.473Z,13.80
2023-01-05T01:34:32.184Z,13.80
2023-01-05T01:36:33.914Z,13.80
2023-01-05T01:38:36.061Z,13.80
2023-01-05T01:40:38.332Z,13.80
2023-01-05T01:42:40.050Z,13.80
2023-01-05T01:44:48.699Z,13.80
2023-01-05T01:46:51.802Z,13.80
2023-01-05T01:48:58.889Z,13.80
2023-01-05T01:51:08.036Z,13.80
2023-01-05T01:53:14.172Z,13.80
2023-01-05T01:55:15.944Z,13.80
2023-01-05T01:57:18.152Z,13.80
2023-01-05T01:59:19.932Z,13.80
2023-01-05T02:01:22.155Z,13.80
2023-01-05T02:03:25.804Z,13.80
2023-01-05T02:05:30.370Z,13.80
2023-01-05T02:07:37.318Z,13.80
2023-01-05T02:09:39.071Z,13.80
2023-01-05T02:11:50.094Z,13.90
2023-01-05T02:14:03.969Z,13.80
2023-01-05T02:16:18.220Z,13.80
2023-01-05T02:18:46.606Z,13.90
2023-01-05T02:21:01.188Z,13.90
2023-01-05T02:23:22.693Z,13.90
2023-01-05T02:25:34.170Z,13.90
2023-01-05T02:27:39.641Z,13.90
2023-01-05T02:30:00.146Z,13.90
2023-01-05T02:32:04.862Z,13.90
2023-01-05T02:34:09.224Z,14.00
2023-01-05T02:36:28.299Z,14.00
2023-01-05T02:38:35.213Z,14.00
2023-01-05T02:40:40.953Z,14.00
2023-01-05T02:42:43.278Z,14.00
2023-01-05T02:44:44.932Z,14.00
2023-01-05T02:46:46.959Z,14.00
2023-01-05T02:48:50.264Z,14.00
2023-01-05T02:51:01.467Z,14.00
2023-01-05T02:53:06.352Z,14.00
2023-01-05T02:55:09.607Z,14.00
2023-01-05T02:57:17.983Z,14.00
2023-01-05T02:59:25.851Z,14.00
2023-01-05T03:01:35.874Z,14.00
2023-01-05T03:03:47.226Z,14.10
2023-01-05T03:06:12.571Z,14.10
2023-01-05T03:08:25.051Z,14.10
2023-01-05T03:10:55.228Z,14.10
2023-01-05T03:13:16.359Z,14.10
2023-01-05T03:15:26.488Z,14.10
2023-01-05T03:17:39.345Z,14.10
2023-01-05T03:19:43.836Z,14.10
2023-01-05T03:22:08.571Z,14.10
2023-01-05T03:24:32.737Z,14.10
2023-01-05T03:26:53.100Z,14.10
2023-01-05T03:29:18.237Z,14.10
2023-01-05T03:31:40.751Z,14.10
2023-01-05T03:34:05.171Z,14.10
2023-01-05T03:36:08.041Z,14.10
2023-01-05T03:38:17.836Z,14.10
2023-01-05T03:40:21.956Z,14.10
2023-01-05T03:42:29.044Z,14.10
2023-01-05T03:44:30.882Z,14.10
2023-01-05T03:46:33.297Z,14.20
2023-01-05T03:48:35.059Z,14.20
2023-01-05T03:50:37.190Z,14.20
2023-01-05T03:52:39.321Z,14.20
2023-01-05T03:54:41.010Z,14.20
2023-01-05T03:56:43.060Z,14.30
2023-01-05T03:58:45.249Z,14.30
2023-01-05T04:00:48.104Z,14.30
2023-01-05T04:02:52.839Z,14.30
2023-01-05T04:04:56.484Z,14.40
2023-01-05T04:06:59.861Z,14.40
2023-01-05T04:09:01.979Z,14.40
2023-01-05T04:11:12.351Z,14.30
2023-01-05T04:13:14.085Z,14.40
2023-01-05T04:15:17.471Z,14.40
2023-01-05T04:17:19.493Z,14.40
2023-01-05T04:19:22.793Z,14.40
2023-01-05T04:21:30.302Z,14.40
2023-01-05T04:23:32.635Z,14.40
2023-01-05T04:25:34.264Z,14.40
2023-01-05T04:27:48.476Z,14.40
2023-01-05T04:29:51.611Z,14.40
2023-01-05T04:31:53.277Z,14.40
2023-01-05T04:33:55.500Z,14.40
2023-01-05T04:35:58.857Z,14.40
2023-01-05T04:38:03.491Z,14.40
2023-01-05T04:40:05.744Z,14.40
2023-01-05T04:42:15.141Z,14.40
2023-01-05T04:44:18.494Z,14.40
2023-01-05T04:46:20.667Z,14.40
2023-01-05T04:48:24.515Z,14.40
2023-01-05T04:50:27.401Z,14.40
2023-01-05T04:52:30.657Z,14.40
2023-01-05T04:54:32.344Z,14.40
2023-01-05T04:56:34.054Z,14.40
2023-01-05T04:58:38.070Z,14.40
2023-01-05T05:00:39.840Z,14.50
2023-01-05T05:02:42.537Z,14.40
2023-01-05T05:04:47.785Z,14.40
2023-01-05T05:06:49.877Z,14.40
2023-01-05T05:08:53.181Z,14.40
2023-01-05T05:10:54.857Z,14.40
2023-01-05T05:12:56.515Z,14.40
2023-01-05T05:14:58.577Z,14.40
2023-01-05T05:17:00.323Z,14.40
2023-01-05T05:19:04.799Z,14.40
2023-01-05T05:21:06.608Z,14.40
2023-01-05T05:23:11.038Z,14.30
2023-01-05T05:25:12.681Z,14.40
2023-01-05T05:27:18.083Z,14.40
2023-01-05T05:29:19.749Z,14.30
2023-01-05T05:31:21.451Z,14.30
2023-01-05T05:33:23.536Z,14.30
2023-01-05T05:35:25.153Z,14.40
2023-01-05T05:37:26.794Z,14.30
2023-01-05T05:39:28.460Z,14.30
2023-01-05T05:41:30.047Z,14.30
2023-01-05T05:43:31.688Z,14.30
2023-01-05T05:45:33.355Z,14.30
2023-01-05T05:47:35.002Z,14.30
2023-01-05T05:49:36.649Z,14.30
2023-01-05T05:51:38.337Z,14.20
2023-01-05T05:53:40.009Z,14.20
2023-01-05T05:55:41.654Z,14.40
2023-01-05T05:57:43.289Z,14.20
2023-01-05T05:59:44.894Z,14.20
2023-01-05T06:01:46.562Z,14.20
2023-01-05T06:03:48.353Z,14.30
2023-01-05T06:05:50.011Z,14.20
2023-01-05T06:07:51.689Z,14.20
2023-01-05T06:09:53.338Z,14.20
2023-01-05T06:11:55.015Z,14.20
2023-01-05T06:13:56.753Z,14.20
2023-01-05T06:15:58.472Z,14.20
2023-01-05T06:18:00.182Z,14.10
2023-01-05T06:20:01.838Z,14.20
2023-01-05T06:22:03.466Z,14.10
2023-01-05T06:24:05.293Z,14.10
2023-01-05T06:26:07.157Z,14.10
2023-01-05T06:28:08.797Z,14.10
2023-01-05T06:30:10.672Z,14.10
2023-01-05T06:32:12.347Z,14.10
2023-01-05T06:34:13.992Z,14.10
2023-01-05T06:36:15.637Z,14.10
2023-01-05T06:38:17.762Z,14.10
2023-01-05T06:40:19.444Z,14.10
2023-01-05T06:42:23.553Z,14.10
2023-01-05T06:44:25.537Z,14.10
2023-01-05T06:46:27.383Z,14.10
2023-01-05T06:48:29.004Z,14.10
2023-01-05T06:50:31.990Z,14.10
2023-01-05T06:52:36.676Z,14.10
2023-01-05T06:54:38.357Z,14.00
2023-01-05T06:56:40.078Z,14.00
2023-01-05T06:58:42.063Z,14.00
2023-01-05T07:00:43.942Z,14.00
2023-01-05T07:02:45.828Z,14.00
2023-01-05T07:04:47.449Z,14.00
2023-01-05T07:06:49.079Z,14.00
2023-01-05T07:08:50.792Z,14.00
2023-01-05T07:10:52.460Z,14.00
2023-01-05T07:12:54.151Z,14.00
2023-01-05T07:14:57.689Z,14.00
2023-01-05T07:17:00.265Z,14.10
2023-01-05T07:19:01.943Z,14.00
2023-01-05T07:21:03.668Z,14.00
2023-01-05T07:23:05.341Z,14.00
2023-01-05T07:25:07.269Z,14.00
2023-01-05T07:27:09.896Z,14.00
2023-01-05T07:29:11.921Z,14.00
2023-01-05T07:31:13.700Z,14.00
2023-01-05T07:33:15.455Z,14.00
2023-01-05T07:35:17.304Z,14.00
2023-01-05T07:37:18.985Z,14.00
2023-01-05T07:39:20.616Z,14.00
2023-01-05T07:41:22.221Z,14.00
2023-01-05T07:43:23.862Z,14.00
2023-01-05T07:45:25.514Z,14.00
2023-01-05T07:47:27.314Z,14.00
2023-01-05T07:49:29.431Z,14.00
2023-01-05T07:51:31.188Z,14.00
2023-01-05T07:53:41.283Z,14.00
2023-01-05T07:55:54.341Z,14.00
2023-01-05T07:57:55.995Z,14.00
2023-01-05T07:59:57.698Z,14.10
2023-01-05T08:01:59.485Z,14.00
2023-01-05T08:04:01.211Z,14.00
2023-01-05T08:06:06.968Z,14.00
2023-01-05T08:08:08.683Z,14.10
2023-01-05T08:10:28.574Z,14.10
2023-01-05T08:12:30.923Z,14.10
2023-01-05T08:14:32.765Z,14.20
2023-01-05T08:16:34.611Z,14.10
2023-01-05T08:18:36.324Z,14.10
2023-01-05T08:20:38.037Z,14.10
2023-01-05T08:22:39.727Z,14.10
2023-01-05T08:24:41.343Z,14.10
2023-01-05T08:26:43.197Z,14.10
2023-01-05T08:28:45.164Z,14.10
2023-01-05T08:30:47.608Z,14.10
2023-01-05T08:32:49.255Z,14.10
2023-01-05T08:34:55.337Z,14.10
2023-01-05T08:36:57.477Z,14.10
2023-01-05T08:39:01.196Z,14.10
2023-01-05T08:41:03.120Z,14.20
2023-01-05T08:43:05.143Z,14.20
2023-01-05T08:45:07.055Z,14.20
2023-01-05T08:47:08.681Z,14.20
2023-01-05T08:49:10.380Z,14.20
2023-01-05T08:51:15.281Z,14.20
2023-01-05T08:53:16.968Z,14.20
2023-01-05T08:55:18.775Z,14.20
2023-01-05T08:57:20.500Z,14.20
2023-01-05T08:59:22.139Z,14.20
2023-01-05T09:01:23.920Z,14.30
2023-01-05T09:03:25.655Z,14.30
2023-01-05T09:05:27.384Z,14.30
2023-01-05T09:07:29.026Z,14.30
2023-01-05T09:09:30.669Z,14.30
2023-01-05T09:11:33.400Z,14.30
2023-01-05T09:13:35.352Z,14.30
2023-01-05T09:15:36.993Z,14.30
2023-01-05T09:17:38.793Z,14.30
2023-01-05T09:19:40.547Z,14.30
2023-01-05T09:21:43.227Z,14.30
2023-01-05T09:23:45.283Z,14.30
2023-01-05T09:25:47.014Z,14.30
2023-01-05T09:27:48.723Z,14.30
2023-01-05T09:29:50.407Z,14.30
2023-01-05T09:31:52.086Z,14.40
2023-01-05T09:33:53.941Z,14.40
2023-01-05T09:35:56.112Z,14.40
2023-01-05T09:37:57.779Z,14.40
2023-01-05T09:39:59.506Z,14.40
2023-01-05T09:42:03.000Z,14.40
2023-01-05T09:44:06.728Z,14.50
2023-01-05T09:46:13.479Z,14.40
2023-01-05T09:48:15.586Z,14.40
2023-01-05T09:50:21.508Z,14.50
2023-01-05T09:52:23.380Z,14.40
2023-01-05T09:54:27.199Z,14.40
2023-01-05T09:57:08.163Z,14.50
2023-01-05T09:59:07.293Z,14.40
2023-01-05T10:01:09.065Z,14.40
2023-01-05T10:03:53.656Z,14.40
2023-01-05T10:05:43.638Z,14.40
2023-01-05T10:08:00.409Z,14.40
2023-01-05T10:10:05.871Z,14.40
2023-01-05T10:12:38.355Z,14.40
2023-01-05T10:14:41.664Z,14.40
2023-01-05T10:16:44.148Z,14.40
2023-01-05T10:18:46.206Z,14.50
2023-01-05T10:21:07.631Z,14.40
2023-01-05T10:23:25.802Z,14.50
2023-01-05T10:25:38.741Z,14.50
2023-01-05T10:27:56.375Z,14.50
2023-01-05T10:30:17.158Z,14.50
2023-01-05T10:32:26.126Z,14.50
2023-01-05T10:34:51.372Z,14.50
2023-01-05T10:37:08.510Z,14.50
2023-01-05T10:39:11.659Z,14.60
2023-01-05T10:41:32.507Z,14.60
2023-01-05T10:43:52.352Z,14.60
2023-01-05T10:46:29.394Z,14.60
2023-01-05T10:48:19.991Z,14.60
2023-01-05T10:50:21.696Z,14.60
2023-01-05T10:52:23.405Z,14.60
2023-01-05T10:54:39.073Z,14.70
2023-01-05T10:56:40.801Z,14.70
2023-01-05T10:58:46.787Z,14.80
2023-01-05T11:00:50.907Z,14.70
2023-01-05T11:03:03.162Z,14.70
2023-01-05T11:05:06.917Z,14.70
2023-01-05T11:07:08.637Z,14.70
2023-01-05T11:09:22.762Z,14.80
2023-01-05T11:11:25.764Z,14.70
2023-01-05T11:13:27.414Z,14.80
2023-01-05T11:15:33.109Z,14.90
2023-01-05T11:17:36.830Z,14.70
2023-01-05T11:19:42.401Z,14.80
2023-01-05T11:21:45.544Z,14.90
2023-01-05T11:23:50.428Z,14.80
2023-01-05T11:25:52.265Z,14.80
2023-01-05T11:28:09.470Z,14.90
2023-01-05T11:30:18.183Z,14.90
2023-01-05T11:32:19.817Z,14.90
2023-01-05T11:34:21.462Z,14.90
2023-01-05T11:36:23.104Z,14.90
2023-01-05T11:38:29.494Z,15.00
2023-01-05T11:40:33.352Z,15.00
2023-01-05T11:42:36.283Z,15.00
2023-01-05T11:44:39.092Z,15.00
2023-01-05T11:46:42.540Z,15.10
2023-01-05T11:48:51.587Z,15.00
2023-01-05T11:50:54.197Z,15.00
2023-01-05T11:52:56.944Z,15.00
2023-01-05T11:54:58.610Z,15.10
2023-01-05T11:57:23.037Z,15.00
2023-01-05T11:59:30.757Z,15.10
2023-01-05T12:01:41.762Z,15.00
2023-01-05T12:03:54.190Z,15.00
2023-01-05T12:06:05.082Z,15.10
2023-01-05T12:08:13.080Z,15.10
2023-01-05T12:10:27.071Z,15.10
2023-01-05T12:12:38.231Z,15.10
2023-01-05T12:14:42.813Z,15.10
2023-01-05T12:16:46.134Z,15.10
2023-01-05T12:18:47.864Z,15.10
2023-01-05T12:21:11.107Z,15.20
2023-01-05T12:23:24.728Z,15.10
2023-01-05T12:25:26.362Z,15.10
2023-01-05T12:27:46.424Z,15.10
2023-01-05T12:31:42.479Z,15.10
2023-01-05T12:35:16.718Z,15.10
2023-01-05T12:37:21.427Z,15.10
2023-01-05T12:39:43.947Z,15.10
2023-01-05T12:41:48.382Z,15.20
2023-01-05T12:44:02.364Z,15.10
2023-01-05T12:46:18.768Z,15.20
2023-01-05T12:48:27.286Z,15.10
2023-01-05T12:50:43.017Z,15.20
2023-01-05T12:52:47.480Z,15.20
2023-01-05T12:54:51.892Z,15.20
2023-01-05T12:56:54.839Z,15.20
2023-01-05T12:59:02.450Z,15.20
2023-01-05T13:01:06.182Z,15.20
2023-01-05T13:03:14.594Z,15.30
2023-01-05T13:05:27.500Z,15.30
2023-01-05T13:07:33.010Z,15.30
2023-01-05T13:09:35.456Z,15.40
2023-01-05T13:11:41.187Z,15.30
2023-01-05T13:13:46.552Z,15.30
2023-01-05T13:15:51.271Z,15.40
2023-01-05T13:17:53.846Z,15.30
2023-01-05T13:20:02.387Z,15.30
2023-01-05T13:22:05.957Z,15.30
2023-01-05T13:24:12.968Z,15.30
2023-01-05T13:26:16.179Z,15.30
2023-01-05T13:28:22.337Z,15.30
2023-01-05T13:30:32.255Z,15.40
2023-01-05T13:32:52.406Z,15.30
2023-01-05T13:35:06.623Z,15.30
2023-01-05T13:37:14.502Z,15.30
2023-01-05T13:39:29.695Z,15.30
2023-01-05T13:41:40.358Z,15.30
2023-01-05T13:43:45.113Z,15.30
2023-01-05T13:45:53.931Z,15.30
2023-01-05T13:50:22.720Z,15.30
2023-01-05T13:52:24.363Z,15.30
2023-01-05T13:55:00.521Z,15.30
2023-01-05T13:57:06.600Z,15.30
2023-01-05T13:59:34.530Z,15.30
2023-01-05T14:01:41.920Z,15.20
2023-01-05T14:03:51.504Z,15.20
2023-01-05T14:05:54.383Z,15.20
2023-01-05T14:07:57.239Z,15.20
2023-01-05T14:09:59.574Z,15.20
2023-01-05T14:12:07.172Z,15.20
2023-01-05T14:14:25.608Z,15.20
2023-01-05T14:16:33.804Z,15.20
2023-01-05T14:18:52.125Z,15.20
2023-01-05T14:20:56.314Z,15.10
2023-01-05T14:22:59.788Z,15.10
2023-01-05T14:25:20.039Z,15.20
2023-01-05T14:27:22.466Z,15.10
2023-01-05T14:29:42.463Z,15.10
2023-01-05T14:31:45.492Z,15.10
2023-01-05T14:33:47.199Z,15.10
2023-01-05T14:35:49.072Z,15.20
2023-01-05T14:37:56.178Z,15.10
2023-01-05T14:40:04.253Z,15.10
2023-01-05T14:42:13.675Z,15.10
2023-01-05T14:44:23.550Z,15.10
2023-01-05T14:46:26.913Z,15.10
2023-01-05T14:48:42.804Z,15.10
2023-01-05T14:50:44.665Z,15.10
2023-01-05T14:52:57.445Z,15.10
2023-01-05T14:55:05.892Z,15.10
2023-01-05T14:57:26.727Z,15.10
2023-01-05T14:59:30.848Z,15.10
2023-01-05T15:01:32.598Z,15.20
2023-01-05T15:03:37.499Z,15.10
2023-01-05T15:05:42.706Z,15.10
2023-01-05T15:07:53.711Z,15.10
2023-01-05T15:10:07.914Z,15.10
2023-01-05T15:12:10.010Z,15.10
2023-01-05T15:14:32.824Z,15.10
2023-01-05T15:16:54.796Z,15.10
2023-01-05T15:19:26.058Z,15.10
2023-01-05T15:21:27.670Z,15.10
2023-01-05T15:26:02.634Z,15.10
2023-01-05T15:28:20.542Z,15.10
2023-01-05T15:30:28.501Z,15.10
2023-01-05T15:32:40.192Z,15.00
2023-01-05T15:34:47.206Z,15.00
2023-01-05T15:37:07.437Z,15.00
2023-01-05T15:39:22.764Z,15.00
2023-01-05T15:41:26.000Z,15.10
2023-01-05T15:43:28.193Z,15.10
2023-01-05T15:45:34.956Z,15.00
2023-01-05T15:47:39.025Z,15.10
2023-01-05T15:49:40.781Z,15.10
2023-01-05T15:51:49.085Z,15.10
2023-01-05T15:53:54.932Z,15.10
2023-01-05T15:55:57.316Z,15.10
2023-01-05T15:58:04.558Z,15.10
2023-01-05T16:00:21.405Z,15.10
2023-01-05T16:02:24.959Z,15.00
2023-01-05T16:04:27.164Z,15.10
2023-01-05T16:06:29.121Z,15.00
2023-01-05T16:08:33.396Z,15.00
2023-01-05T16:10:47.173Z,15.10
2023-01-05T16:12:50.710Z,15.10
2023-01-05T16:15:01.706Z,15.10
2023-01-05T16:17:06.616Z,15.10
2023-01-05T16:19:11.461Z,15.10
2023-01-05T16:21:20.054Z,15.00
2023-01-05T16:23:29.461Z,15.10
2023-01-05T16:25:34.458Z,15.10
2023-01-05T16:27:38.942Z,15.00
2023-01-05T16:29:44.313Z,15.10
2023-01-05T16:31:53.674Z,15.00
2023-01-05T16:34:05.945Z,15.00
2023-01-05T16:36:07.672Z,15.00
2023-01-05T16:38:18.534Z,15.00
2023-01-05T16:40:20.742Z,15.00
2023-01-05T16:42:40.798Z,15.00
2023-01-05T16:44:50.929Z,15.00
2023-01-05T16:47:03.479Z,14.90
2023-01-05T16:49:23.985Z,15.00
2023-01-05T16:51:36.813Z,14.90
2023-01-05T16:53:42.684Z,14.90
2023-01-05T16:55:44.591Z,14.90
2023-01-05T16:57:46.224Z,14.90
2023-01-05T16:59:49.990Z,14.90
2023-01-05T17:01:51.941Z,14.90
2023-01-05T17:03:53.862Z,14.80
2023-01-05T17:05:56.531Z,14.80
2023-01-05T17:08:12.931Z,14.80
2023-01-05T17:10:16.725Z,14.80
2023-01-05T17:12:19.191Z,14.80
2023-01-05T17:14:21.525Z,14.80
2023-01-05T17:16:23.431Z,14.80
2023-01-05T17:18:26.356Z,14.80
2023-01-05T17:20:34.620Z,14.80
2023-01-05T17:22:36.367Z,14.80
2023-01-05T17:24:38.162Z,14.80
2023-01-05T17:26:42.834Z,14.80
2023-01-05T17:28:45.525Z,14.80
2023-01-05T17:30:47.311Z,14.80
2023-01-05T17:32:49.034Z,14.80
2023-01-05T17:34:50.764Z,14.80
2023-01-05T17:36:55.871Z,14.80
2023-01-05T17:38:57.839Z,14.80
2023-01-05T17:40:59.535Z,14.80
2023-01-05T17:43:01.202Z,14.80
2023-01-05T17:45:02.972Z,14.80
2023-01-05T17:47:04.883Z,14.80
2023-01-05T17:49:13.025Z,14.80
2023-01-05T17:51:14.759Z,14.70
2023-01-05T17:53:16.743Z,14.80
2023-01-05T17:55:21.637Z,14.70
2023-01-05T17:57:23.453Z,14.70
2023-01-05T17:59:27.674Z,14.70
2023-01-05T18:01:29.365Z,14.70
2023-01-05T18:03:31.010Z,14.70
2023-01-05T18:05:32.693Z,14.80
2023-01-05T18:07:34.666Z,14.70
2023-01-05T18:09:37.938Z,14.80
2023-01-05T18:11:40.913Z,14.70
2023-01-05T18:15:46.325Z,14.80
2023-01-05T18:17:48.042Z,14.80
2023-01-05T18:19:49.718Z,14.70
2023-01-05T18:21:51.365Z,14.70
2023-01-05T18:23:53.014Z,14.70
2023-01-05T18:25:54.638Z,14.70
2023-01-05T18:27:56.416Z,14.80
2023-01-05T18:29:58.135Z,14.80
2023-01-05T18:32:00.238Z,14.70
2023-01-05T18:34:02.043Z,14.70
2023-01-05T18:36:13.375Z,14.80
2023-01-05T18:38:15.345Z,14.80
2023-01-05T18:40:17.276Z,14.70
2023-01-05T18:42:18.982Z,14.70
2023-01-05T18:44:20.635Z,14.80
2023-01-05T18:46:22.470Z,14.80
2023-01-05T18:48:24.308Z,14.70
2023-01-05T18:50:26.346Z,14.70
2023-01-05T18:52:30.913Z,14.70
2023-01-05T18:54:35.506Z,14.70
2023-01-05T18:56:37.410Z,14.80
2023-01-05T18:58:39.491Z,14.70
2023-01-05T19:00:42.062Z,14.70
2023-01-05T19:02:43.818Z,14.70
2023-01-05T19:04:45.544Z,14.70
2023-01-05T19:06:47.276Z,14.70
2023-01-05T19:08:49.347Z,14.70
2023-01-05T19:10:51.254Z,14.70
2023-01-05T19:12:56.901Z,14.70
2023-01-05T19:14:58.763Z,14.70
2023-01-05T19:17:00.517Z,14.70
2023-01-05T19:19:05.237Z,14.70
2023-01-05T19:21:07.022Z,14.70
2023-01-05T19:23:08.775Z,14.70
2023-01-05T19:25:10.595Z,14.70
2023-01-05T19:27:15.186Z,14.70
2023-01-05T19:29:17.414Z,14.70
2023-01-05T19:31:20.017Z,14.70
2023-01-05T19:33:21.764Z,14.70
2023-01-05T19:35:32.110Z,14.60
2023-01-05T19:37:35.637Z,14.60
2023-01-05T19:39:38.002Z,14.70
2023-01-05T19:41:40.753Z,14.60
2023-01-05T19:43:42.600Z,14.60
2023-01-05T19:45:45.794Z,14.60
2023-01-05T19:47:47.558Z,14.70
2023-01-05T19:49:49.212Z,14.70
2023-01-05T19:51:51.394Z,14.60
2023-01-05T19:53:57.289Z,14.60
2023-01-05T19:56:03.399Z,14.60
2023-01-05T19:58:05.216Z,14.60
2023-01-05T20:00:07.380Z,14.60
2023-01-05T20:02:13.434Z,14.60
2023-01-05T20:04:15.335Z,14.60
2023-01-05T20:06:24.556Z,14.60
2023-01-05T20:08:26.308Z,14.60
2023-01-05T20:10:28.071Z,14.60
2023-01-05T20:12:29.765Z,14.60
2023-01-05T20:14:32.235Z,14.60
2023-01-05T20:16:34.399Z,14.60
2023-01-05T20:18:36.427Z,14.60
2023-01-05T20:20:38.777Z,14.60
2023-01-05T20:22:41.691Z,14.60
2023-01-05T20:24:43.731Z,14.60
2023-01-05T20:26:46.631Z,14.60
2023-01-05T20:28:49.194Z,14.70
2023-01-05T20:30:51.399Z,14.60
2023-01-05T20:32:53.143Z,14.60
2023-01-05T20:35:02.348Z,14.60
2023-01-05T20:37:07.959Z,14.60
2023-01-05T20:39:10.665Z,14.70
2023-01-05T20:41:13.603Z,14.60
2023-01-05T20:43:16.476Z,14.60
2023-01-05T20:45:18.452Z,14.60
2023-01-05T20:47:23.336Z,14.60
2023-01-05T20:49:26.508Z,14.60
2023-01-05T20:51:28.245Z,14.60
2023-01-05T20:53:30.120Z,14.60
2023-01-05T20:55:31.899Z,14.60
2023-01-05T20:57:33.592Z,14.60
2023-01-05T20:59:36.134Z,14.60
2023-01-05T21:01:38.158Z,14.60
2023-01-05T21:03:40.662Z,14.60
2023-01-05T21:05:42.910Z,14.60
2023-01-05T21:07:44.717Z,14.60
2023-01-05T21:09:46.468Z,14.60
2023-01-05T21:11:48.240Z,14.60
2023-01-05T21:13:50.378Z,14.60
2023-01-05T21:15:59.824Z,14.60
2023-01-05T21:18:01.555Z,14.60
2023-01-05T21:20:03.684Z,14.60
2023-01-05T21:22:05.499Z,14.60
2023-01-05T21:24:07.903Z,14.60
2023-01-05T21:26:12.870Z,14.60
2023-01-05T21:28:16.798Z,14.60
2023-01-05T21:30:18.550Z,14.70
2023-01-05T21:32:20.391Z,14.60
2023-01-05T21:34:22.239Z,14.60
2023-01-05T21:36:25.424Z,14.70
2023-01-05T21:38:27.200Z,14.60
2023-01-05T21:40:48.897Z,14.60
2023-01-05T21:42:50.655Z,14.60
2023-01-05T21:44:53.238Z,14.60
2023-01-05T21:46:54.965Z,14.60
2023-01-05T21:48:56.599Z,14.60
2023-01-05T21:51:17.596Z,14.70
2023-01-05T21:53:37.779Z,14.60
2023-01-05T21:55:58.157Z,14.60
2023-01-05T21:57:59.889Z,14.60
2023-01-05T22:00:01.766Z,14.60
2023-01-05T22:02:03.857Z,14.60
2023-01-05T22:04:05.941Z,14.60
2023-01-05T22:06:07.811Z,14.60
2023-01-05T22:08:09.634Z,14.60
2023-01-05T22:10:11.527Z,14.60
2023-01-05T22:12:13.195Z,14.60
2023-01-05T22:14:15.276Z,14.70
2023-01-05T22:16:16.988Z,14.60
2023-01-05T22:18:18.909Z,14.80
2023-01-05T22:20:20.696Z,14.70
2023-01-05T22:22:22.441Z,14.70
2023-01-05T22:24:26.483Z,14.70
2023-01-05T22:26:28.228Z,14.70
2023-01-05T22:28:30.116Z,14.70
2023-01-05T22:30:32.110Z,14.70
2023-01-05T22:32:34.962Z,14.70
2023-01-05T22:34:37.893Z,14.70
2023-01-05T22:36:39.617Z,14.80
2023-01-05T22:38:43.796Z,14.70
2023-01-05T22:40:52.419Z,14.70
2023-01-05T22:42:54.698Z,14.70
2023-01-05T22:44:56.327Z,14.70
2023-01-05T22:46:58.082Z,14.70
2023-01-05T22:49:00.006Z,14.80
2023-01-05T22:51:04.337Z,14.60
2023-01-05T22:53:06.026Z,14.60
2023-01-05T22:55:07.875Z,14.60
2023-01-05T22:57:09.636Z,14.70
2023-01-05T22:59:11.402Z,14.60
2023-01-05T23:01:14.339Z,14.60
2023-01-05T23:03:16.091Z,14.60
2023-01-05T23:05:17.940Z,14.60
2023-01-05T23:07:22.438Z,14.70
2023-01-05T23:09:24.399Z,14.60
2023-01-05T23:11:28.252Z,14.70
2023-01-05T23:13:30.043Z,14.70
2023-01-05T23:15:31.721Z,14.70
2023-01-05T23:17:33.370Z,14.70
2023-01-05T23:19:35.220Z,14.70
2023-01-05T23:21:36.983Z,14.60
2023-01-05T23:23:39.006Z,14.70
2023-01-05T23:25:40.658Z,14.80
2023-01-05T23:27:42.375Z,14.60
2023-01-05T23:29:44.030Z,14.70
2023-01-05T23:31:45.715Z,14.60
2023-01-05T23:33:47.759Z,14.60
2023-01-05T23:35:52.775Z,14.60
2023-01-05T23:37:54.385Z,14.60
2023-01-05T23:39:56.074Z,14.60
2023-01-05T23:41:57.774Z,14.60
2023-01-05T23:43:59.485Z,14.60
2023-01-05T23:46:02.317Z,14.60
2023-01-05T23:48:04.072Z,14.60
2023-01-05T23:50:06.082Z,14.60
2023-01-05T23:52:07.778Z,14.60
2023-01-05T23:54:10.708Z,14.60
2023-01-05T23:56:19.914Z,14.60
2023-01-05T23:58:21.577Z,14.60
